createdAt,value
2023-02-24T00:02:06.517Z,99750.53
2023-02-24T00:04:52.106Z,99749.41
2023-02-24T00:07:21.757Z,99739.28
2023-02-24T00:09:52.069Z,99734.44
2023-02-24T00:12:21.386Z,99713.31
2023-02-24T00:14:50.421Z,99634.13
2023-02-24T00:17:18.228Z,99699.34
2023-02-24T00:19:48.378Z,99750.31
2023-02-24T00:22:17.623Z,99726.41
2023-02-24T00:24:46.540Z,99723.28
2023-02-24T00:27:14.936Z,99619.84
2023-02-24T00:29:47.613Z,99746.94
2023-02-24T00:32:16.628Z,99694.94
2023-02-24T00:34:48.891Z,99666.69
2023-02-24T00:37:24.134Z,99742.72
2023-02-24T00:39:51.948Z,99394.00
2023-02-24T00:42:19.644Z,99717.16
2023-02-24T00:44:48.146Z,99719.88
2023-02-24T00:47:17.062Z,99688.03
2023-02-24T00:49:46.752Z,99676.38
2023-02-24T00:52:17.750Z,99734.72
2023-02-24T00:54:47.870Z,99697.88
2023-02-24T00:57:18.454Z,99723.44
2023-02-24T00:59:51.562Z,99728.97
2023-02-24T01:02:20.460Z,99760.16
2023-02-24T01:04:50.165Z,99750.91
2023-02-24T01:07:17.926Z,99768.91
2023-02-24T01:09:45.788Z,99673.22
2023-02-24T01:12:32.405Z,99427.63
2023-02-24T01:15:05.261Z,99760.88
2023-02-24T01:17:35.957Z,99775.66
2023-02-24T01:20:17.013Z,99786.03
2023-02-24T01:22:48.073Z,99725.41
2023-02-24T01:25:20.249Z,99761.19
2023-02-24T01:27:48.444Z,99773.16
2023-02-24T01:30:16.855Z,99702.44
2023-02-24T01:32:45.241Z,99754.16
2023-02-24T01:35:14.898Z,99723.25
2023-02-24T01:37:43.497Z,99773.09
2023-02-24T01:40:21.036Z,99711.88
2023-02-24T01:42:49.967Z,99777.97
2023-02-24T01:45:25.131Z,99746.56
2023-02-24T01:48:00.281Z,99777.19
2023-02-24T01:50:29.001Z,99740.19
2023-02-24T01:53:02.478Z,99673.16
2023-02-24T01:55:37.100Z,99741.19
2023-02-24T01:58:13.195Z,99778.00
2023-02-24T02:00:45.742Z,99772.09
2023-02-24T02:03:30.020Z,99737.00
2023-02-24T02:06:04.276Z,99726.31
2023-02-24T02:08:36.717Z,99722.44
2023-02-24T02:11:10.310Z,99757.50
2023-02-24T02:13:43.463Z,99627.97
2023-02-24T02:16:38.184Z,99771.09
2023-02-24T02:19:27.912Z,99781.25
2023-02-24T02:21:58.673Z,99785.06
2023-02-24T02:25:16.278Z,99781.75
2023-02-24T02:27:58.465Z,99650.47
2023-02-24T02:30:48.510Z,99752.63
2023-02-24T02:33:28.393Z,99765.03
2023-02-24T02:36:12.651Z,99749.88
2023-02-24T02:38:58.367Z,99732.78
2023-02-24T02:41:51.206Z,99641.44
2023-02-24T02:44:33.461Z,99753.09
2023-02-24T02:47:35.319Z,99771.59
2023-02-24T02:50:39.164Z,99739.63
2023-02-24T02:53:14.168Z,99675.41
2023-02-24T02:55:56.768Z,99681.44
2023-02-24T02:58:30.630Z,99743.72
2023-02-24T03:01:03.408Z,99736.81
2023-02-24T03:03:43.769Z,99703.03
2023-02-24T03:06:12.027Z,99779.59
2023-02-24T03:08:43.695Z,99763.38
2023-02-24T03:11:20.510Z,99708.16
2023-02-24T03:13:52.944Z,99736.72
2023-02-24T03:16:26.719Z,99618.53
2023-02-24T03:19:04.906Z,99719.28
2023-02-24T03:21:36.011Z,99741.13
2023-02-24T03:24:06.478Z,99688.38
2023-02-24T03:26:52.327Z,99740.56
2023-02-24T03:29:33.269Z,99713.22
2023-02-24T03:32:10.095Z,99742.84
2023-02-24T03:35:03.213Z,99731.03
2023-02-24T03:37:34.829Z,99587.19
2023-02-24T03:40:31.870Z,99721.28
2023-02-24T03:43:12.044Z,99652.22
2023-02-24T03:45:44.106Z,99722.56
2023-02-24T03:48:12.486Z,99683.41
2023-02-24T03:50:42.565Z,99649.66
2023-02-24T03:53:57.803Z,99641.28
2023-02-24T03:56:46.297Z,99616.91
2023-02-24T03:59:43.054Z,99726.53
2023-02-24T04:02:15.633Z,99731.16
2023-02-24T04:04:57.583Z,99710.44
2023-02-24T04:08:04.091Z,99717.97
2023-02-24T04:10:39.399Z,99693.44
2023-02-24T04:13:35.623Z,99715.19
2023-02-24T04:16:29.232Z,99694.44
2023-02-24T04:19:04.126Z,99667.34
2023-02-24T04:21:37.986Z,99600.03
2023-02-24T04:24:12.034Z,99620.72
2023-02-24T04:26:41.772Z,99574.34
2023-02-24T04:29:17.796Z,99661.13
2023-02-24T04:31:50.421Z,99674.22
2023-02-24T04:34:20.376Z,99689.22
2023-02-24T04:36:50.439Z,99691.44
2023-02-24T04:39:20.679Z,99656.06
2023-02-24T04:41:52.846Z,99725.81
2023-02-24T04:44:22.462Z,99722.00
2023-02-24T04:46:51.009Z,99714.22
2023-02-24T04:49:20.195Z,99720.97
2023-02-24T04:51:48.000Z,99571.28
2023-02-24T04:54:17.737Z,99700.06
2023-02-24T04:56:48.173Z,99729.38
2023-02-24T04:59:18.435Z,99697.66
2023-02-24T05:01:48.457Z,99649.03
2023-02-24T05:04:16.357Z,99720.44
2023-02-24T05:06:45.012Z,99744.56
2023-02-24T05:09:17.701Z,99627.38
2023-02-24T05:11:51.112Z,99747.19
2023-02-24T05:14:25.241Z,99736.63
2023-02-24T05:16:53.255Z,99742.06
2023-02-24T05:19:39.448Z,99617.06
2023-02-24T05:22:07.410Z,99680.00
2023-02-24T05:24:35.248Z,99693.53
2023-02-24T05:27:04.036Z,99732.47
2023-02-24T05:29:35.740Z,99738.22
2023-02-24T05:32:05.830Z,99685.06
2023-02-24T05:34:34.291Z,99725.69
2023-02-24T05:37:10.427Z,99733.03
2023-02-24T05:39:38.504Z,99607.63
2023-02-24T05:42:07.358Z,99687.75
2023-02-24T05:44:35.972Z,99662.28
2023-02-24T05:47:05.900Z,99669.00
2023-02-24T05:49:35.581Z,99699.69
2023-02-24T05:52:09.219Z,99585.13
2023-02-24T05:54:40.382Z,99654.44
2023-02-24T05:57:13.879Z,99648.91
2023-02-24T05:59:43.293Z,99680.94
2023-02-24T06:02:14.443Z,99686.16
2023-02-24T06:04:57.492Z,99736.59
2023-02-24T06:07:28.253Z,99745.22
2023-02-24T06:09:58.422Z,99657.03
2023-02-24T06:12:33.937Z,99727.25
2023-02-24T06:15:07.881Z,99620.88
2023-02-24T06:17:36.183Z,99682.22
2023-02-24T06:20:14.082Z,99710.19
2023-02-24T06:22:44.558Z,99729.63
2023-02-24T06:25:12.325Z,99665.50
2023-02-24T06:27:40.062Z,99744.50
2023-02-24T06:30:10.604Z,99681.19
2023-02-24T06:32:39.027Z,99587.41
2023-02-24T06:35:07.514Z,99748.88
2023-02-24T06:37:35.923Z,99690.06
2023-02-24T06:40:09.450Z,99696.16
2023-02-24T06:42:39.374Z,99746.41
2023-02-24T06:45:08.513Z,99723.91
2023-02-24T06:47:36.329Z,99751.22
2023-02-24T06:50:07.970Z,99722.22
2023-02-24T06:52:36.734Z,99699.31
2023-02-24T06:55:05.917Z,99697.84
2023-02-24T06:57:34.497Z,99735.31
2023-02-24T07:00:17.108Z,99725.81
2023-02-24T07:02:45.655Z,99638.16
2023-02-24T07:05:15.119Z,99766.56
2023-02-24T07:07:46.201Z,99773.31
2023-02-24T07:10:13.992Z,99711.44
2023-02-24T07:12:42.122Z,99725.44
2023-02-24T07:15:09.994Z,99787.50
2023-02-24T07:17:39.220Z,99724.56
2023-02-24T07:20:12.329Z,99698.41
2023-02-24T07:22:40.044Z,99760.97
2023-02-24T07:25:08.431Z,99740.75
2023-02-24T07:27:37.222Z,99797.25
2023-02-24T07:30:09.974Z,99724.13
2023-02-24T07:32:38.556Z,99765.19
2023-02-24T07:35:06.930Z,99821.41
2023-02-24T07:37:35.077Z,99796.88
2023-02-24T07:40:04.822Z,99773.22
2023-02-24T07:42:35.593Z,99768.25
2023-02-24T07:45:08.255Z,99758.25
2023-02-24T07:47:36.914Z,99806.63
2023-02-24T07:50:10.774Z,99770.91
2023-02-24T07:52:38.831Z,99767.91
2023-02-24T07:55:09.387Z,99729.66
2023-02-24T07:57:37.733Z,99779.44
2023-02-24T08:00:36.281Z,99769.84
2023-02-24T08:03:04.623Z,99796.22
2023-02-24T08:05:34.482Z,99757.31
2023-02-24T08:08:03.219Z,99788.28
2023-02-24T08:10:37.031Z,99670.59
2023-02-24T08:13:04.847Z,99786.81
2023-02-24T08:15:34.700Z,99822.75
2023-02-24T08:18:02.627Z,99758.44
2023-02-24T08:20:52.483Z,99795.34
2023-02-24T08:23:23.648Z,99744.03
2023-02-24T08:25:54.081Z,99795.84
2023-02-24T08:28:27.129Z,99787.94
2023-02-24T08:30:56.328Z,99822.94
2023-02-24T08:33:24.570Z,99833.59
2023-02-24T08:36:01.597Z,99734.28
2023-02-24T08:38:44.840Z,99832.47
2023-02-24T08:41:20.503Z,99796.41
2023-02-24T08:43:49.542Z,99838.41
2023-02-24T08:46:21.460Z,99841.63
2023-02-24T08:48:55.707Z,99840.53
2023-02-24T08:51:30.241Z,99808.56
2023-02-24T08:54:00.907Z,99838.03
2023-02-24T08:56:36.461Z,99828.28
2023-02-24T08:59:06.794Z,99764.34
2023-02-24T09:01:37.738Z,99824.09
2023-02-24T09:04:11.457Z,99836.84
2023-02-24T09:07:10.766Z,99840.75
2023-02-24T09:09:42.504Z,99855.75
2023-02-24T09:12:22.280Z,99824.59
2023-02-24T09:14:55.822Z,99777.97
2023-02-24T09:17:50.225Z,99799.78
2023-02-24T09:20:42.240Z,99854.16
2023-02-24T09:23:20.111Z,99855.91
2023-02-24T09:25:54.533Z,99867.94
2023-02-24T09:28:25.114Z,99857.09
2023-02-24T09:30:55.673Z,99856.81
2023-02-24T09:33:39.864Z,99862.00
2023-02-24T09:36:45.140Z,99840.53
2023-02-24T09:39:14.839Z,99746.47
2023-02-24T09:41:54.676Z,99845.78
2023-02-24T09:44:41.736Z,99813.22
2023-02-24T09:47:40.203Z,99806.00
2023-02-24T09:50:14.436Z,99869.63
2023-02-24T09:52:43.335Z,99872.56
2023-02-24T09:55:29.729Z,99884.69
2023-02-24T09:58:18.453Z,99875.63
2023-02-24T10:01:21.287Z,99881.38
2023-02-24T10:04:14.998Z,99887.38
2023-02-24T10:06:50.476Z,99863.84
2023-02-24T10:09:41.796Z,99809.78
2023-02-24T10:12:17.461Z,99901.75
2023-02-24T10:14:53.232Z,99893.19
2023-02-24T10:17:25.947Z,99910.41
2023-02-24T10:20:02.725Z,99917.94
2023-02-24T10:22:53.170Z,99918.75
2023-02-24T10:25:27.148Z,99919.00
2023-02-24T10:28:17.979Z,99926.03
2023-02-24T10:31:04.243Z,99926.63
2023-02-24T10:33:39.170Z,99835.69
2023-02-24T10:36:26.077Z,99927.03
2023-02-24T10:38:56.575Z,99927.03
2023-02-24T10:41:29.431Z,99906.16
2023-02-24T10:43:58.906Z,99865.75
2023-02-24T10:46:42.785Z,99892.81
2023-02-24T10:49:17.168Z,99874.03
2023-02-24T10:51:53.365Z,99858.56
2023-02-24T10:55:05.269Z,99803.53
2023-02-24T10:57:47.450Z,99903.72
2023-02-24T11:00:42.206Z,99791.28
2023-02-24T11:03:21.958Z,99831.66
2023-02-24T11:06:04.532Z,99873.97
2023-02-24T11:08:44.733Z,99901.38
2023-02-24T11:11:34.236Z,99868.00
2023-02-24T11:14:21.948Z,99897.63
2023-02-24T11:17:08.134Z,99886.75
2023-02-24T11:19:56.273Z,99890.50
2023-02-24T11:22:33.200Z,99860.28
2023-02-24T11:25:09.182Z,99714.09
2023-02-24T11:27:42.814Z,99871.88
2023-02-24T11:30:41.333Z,99879.06
2023-02-24T11:33:30.521Z,99888.13
2023-02-24T11:36:23.467Z,99876.91
2023-02-24T11:39:24.357Z,99848.69
2023-02-24T11:41:57.581Z,99880.72
2023-02-24T11:44:59.086Z,99868.63
2023-02-24T11:47:39.407Z,99713.28
2023-02-24T11:50:07.208Z,99854.16
2023-02-24T11:52:40.395Z,99822.41
2023-02-24T11:55:28.355Z,99840.28
2023-02-24T11:58:00.526Z,99829.13
2023-02-24T12:00:32.955Z,99826.28
2023-02-24T12:03:36.079Z,99813.50
2023-02-24T12:06:21.329Z,99808.28
2023-02-24T12:08:53.740Z,99802.66
2023-02-24T12:11:54.108Z,99803.69
2023-02-24T12:14:51.848Z,99800.50
2023-02-24T12:17:58.171Z,99792.25
2023-02-24T12:20:34.514Z,99798.69
2023-02-24T12:23:25.856Z,99781.06
2023-02-24T12:26:09.299Z,99755.56
2023-02-24T12:28:49.111Z,99790.13
2023-02-24T12:31:45.929Z,99779.28
2023-02-24T12:34:38.670Z,99789.53
2023-02-24T12:37:37.277Z,99777.16
2023-02-24T12:40:40.778Z,99778.84
2023-02-24T12:43:33.322Z,99772.31
2023-02-24T12:46:07.582Z,99753.91
2023-02-24T12:48:50.581Z,99753.09
2023-02-24T12:51:56.911Z,99754.72
2023-02-24T12:54:24.929Z,99749.50
2023-02-24T12:57:14.558Z,99746.78
2023-02-24T12:59:43.432Z,99637.09
2023-02-24T13:03:00.830Z,99693.34
2023-02-24T13:05:43.028Z,99672.59
2023-02-24T13:08:39.106Z,99732.50
2023-02-24T13:11:32.182Z,99721.84
2023-02-24T13:14:14.307Z,99685.59
2023-02-24T13:16:43.265Z,99642.75
2023-02-24T13:19:20.272Z,99712.00
2023-02-24T13:22:03.331Z,99708.66
2023-02-24T13:24:31.603Z,99712.97
2023-02-24T13:27:17.795Z,99708.34
2023-02-24T13:29:57.412Z,99688.22
2023-02-24T13:32:32.669Z,99692.34
2023-02-24T13:35:24.134Z,99685.00
2023-02-24T13:37:52.759Z,99664.88
2023-02-24T13:40:23.528Z,99675.16
2023-02-24T13:42:58.040Z,99663.47
2023-02-24T13:45:27.670Z,99662.38
2023-02-24T13:48:29.582Z,99648.50
2023-02-24T13:51:31.488Z,99648.00
2023-02-24T13:54:00.606Z,99652.31
2023-02-24T13:56:48.745Z,99648.59
2023-02-24T13:59:53.243Z,99648.59
2023-02-24T14:02:27.308Z,99649.88
2023-02-24T14:04:57.906Z,99594.50
2023-02-24T14:07:30.852Z,99540.25
2023-02-24T14:10:06.182Z,99601.44
2023-02-24T14:12:37.882Z,99635.41
2023-02-24T14:15:06.327Z,99594.38
2023-02-24T14:17:37.056Z,99643.66
2023-02-24T14:20:18.700Z,99640.13
2023-02-24T14:22:59.165Z,99617.91
2023-02-24T14:25:34.375Z,99523.34
2023-02-24T14:28:03.472Z,99475.66
2023-02-24T14:30:40.582Z,99529.69
2023-02-24T14:33:19.237Z,99598.63
2023-02-24T14:35:47.571Z,99583.66
2023-02-24T14:38:59.630Z,99641.31
2023-02-24T14:41:27.948Z,99623.75
2023-02-24T14:43:56.633Z,99611.38
2023-02-24T14:46:25.029Z,99621.72
2023-02-24T14:48:56.304Z,99648.25
2023-02-24T14:51:35.802Z,99649.38
2023-02-24T14:54:09.385Z,99636.91
2023-02-24T14:56:37.843Z,99543.44
2023-02-24T14:59:18.461Z,99633.56
2023-02-24T15:01:49.697Z,99624.34
2023-02-24T15:04:43.764Z,99618.13
2023-02-24T15:07:26.170Z,99552.56
2023-02-24T15:09:54.973Z,99551.25
2023-02-24T15:12:35.945Z,99614.47
2023-02-24T15:15:35.072Z,99594.47
2023-02-24T15:18:10.123Z,99469.78
2023-02-24T15:20:41.036Z,99595.66
2023-02-24T15:23:41.350Z,99539.28
2023-02-24T15:26:27.151Z,99582.16
2023-02-24T15:29:25.955Z,99551.63
2023-02-24T15:31:55.700Z,99584.88
2023-02-24T15:34:28.573Z,99535.56
2023-02-24T15:37:04.349Z,99544.63
2023-02-24T15:39:34.608Z,99438.19
2023-02-24T15:42:11.007Z,99578.28
2023-02-24T15:44:39.104Z,99578.06
2023-02-24T15:47:43.758Z,99561.50
2023-02-24T15:50:13.346Z,99568.53
2023-02-24T15:52:42.144Z,99443.69
2023-02-24T15:55:15.173Z,99573.94
2023-02-24T15:57:43.753Z,99508.25
2023-02-24T16:00:18.630Z,99543.31
2023-02-24T16:02:48.145Z,99564.31
2023-02-24T16:05:16.826Z,99479.94
2023-02-24T16:07:47.611Z,99546.13
2023-02-24T16:10:26.119Z,99558.47
2023-02-24T16:12:56.670Z,99519.59
2023-02-24T16:15:33.567Z,99525.09
2023-02-24T16:18:04.685Z,99513.25
2023-02-24T16:20:35.003Z,99544.91
2023-02-24T16:23:05.961Z,99480.31
2023-02-24T16:25:41.069Z,99460.03
2023-02-24T16:28:20.306Z,99552.47
2023-02-24T16:30:50.896Z,99513.66
2023-02-24T16:33:23.784Z,99457.47
2023-02-24T16:35:55.065Z,99465.69
2023-02-24T16:38:27.151Z,99552.94
2023-02-24T16:40:56.014Z,99305.81
2023-02-24T16:43:24.966Z,99483.72
2023-02-24T16:45:55.760Z,99539.97
2023-02-24T16:48:27.032Z,99397.72
2023-02-24T16:50:55.189Z,99539.06
2023-02-24T16:53:25.101Z,99465.75
2023-02-24T16:55:53.255Z,99510.22
2023-02-24T16:58:21.042Z,99507.03
2023-02-24T17:00:50.998Z,99540.75
2023-02-24T17:03:45.259Z,99550.81
2023-02-24T17:06:14.572Z,99540.59
2023-02-24T17:08:44.016Z,99421.72
2023-02-24T17:11:17.823Z,99524.19
2023-02-24T17:13:45.605Z,99381.06
2023-02-24T17:16:13.586Z,99525.31
2023-02-24T17:18:41.634Z,99520.09
2023-02-24T17:21:15.132Z,99544.22
2023-02-24T17:23:43.392Z,99541.81
2023-02-24T17:26:17.694Z,99532.97
2023-02-24T17:28:48.584Z,99531.47
2023-02-24T17:31:16.398Z,99418.13
2023-02-24T17:33:44.469Z,99567.16
2023-02-24T17:36:12.587Z,99563.63
2023-02-24T17:38:40.624Z,99460.88
2023-02-24T17:41:11.652Z,99420.03
2023-02-24T17:43:39.570Z,99517.88
2023-02-24T17:46:09.897Z,99470.69
2023-02-24T17:48:38.942Z,99526.91
2023-02-24T17:51:07.831Z,99568.53
2023-02-24T17:53:36.721Z,99535.38
2023-02-24T17:56:05.835Z,99564.19
2023-02-24T17:58:34.152Z,99488.34
2023-02-24T18:01:08.448Z,99576.97
2023-02-24T18:03:37.031Z,99344.22
2023-02-24T18:06:08.963Z,99576.28
2023-02-24T18:08:38.353Z,99575.97
2023-02-24T18:11:08.230Z,99555.38
2023-02-24T18:13:36.339Z,99541.59
2023-02-24T18:16:11.654Z,99579.78
2023-02-24T18:18:40.314Z,99565.19
2023-02-24T18:21:08.839Z,99448.69
2023-02-24T18:23:41.384Z,99523.31
2023-02-24T18:26:13.332Z,99569.44
2023-02-24T18:28:41.499Z,99559.78
2023-02-24T18:31:16.134Z,99483.97
2023-02-24T18:33:44.906Z,99580.41
2023-02-24T18:36:14.474Z,99572.56
2023-02-24T18:38:42.544Z,99583.00
2023-02-24T18:41:15.755Z,99587.84
2023-02-24T18:43:43.975Z,99528.34
2023-02-24T18:46:14.430Z,99582.19
2023-02-24T18:48:44.762Z,99556.28
2023-02-24T18:51:15.374Z,99559.78
2023-02-24T18:53:43.618Z,99517.91
2023-02-24T18:56:17.016Z,99587.44
2023-02-24T18:58:47.064Z,99591.28
2023-02-24T19:01:34.251Z,99588.56
2023-02-24T19:04:03.078Z,99529.38
2023-02-24T19:06:32.219Z,99454.28
2023-02-24T19:09:07.531Z,99596.91
2023-02-24T19:11:36.260Z,99597.50
2023-02-24T19:14:05.391Z,99499.94
2023-02-24T19:16:34.193Z,99595.31
2023-02-24T19:19:02.104Z,99463.09
2023-02-24T19:21:31.692Z,99619.66
2023-02-24T19:24:01.639Z,99585.34
2023-02-24T19:26:29.777Z,99608.38
2023-02-24T19:28:59.853Z,99575.41
2023-02-24T19:31:30.278Z,99599.50
2023-02-24T19:34:01.167Z,99604.56
2023-02-24T19:36:30.906Z,99623.88
2023-02-24T19:39:00.133Z,99560.31
2023-02-24T19:41:30.174Z,99622.34
2023-02-24T19:43:57.970Z,99523.56
2023-02-24T19:46:26.419Z,99586.88
2023-02-24T19:48:56.590Z,99564.34
2023-02-24T19:51:25.394Z,99650.31
2023-02-24T19:53:55.814Z,99644.47
2023-02-24T19:56:26.049Z,99648.38
2023-02-24T19:58:55.524Z,99641.97
2023-02-24T20:01:24.700Z,99636.09
2023-02-24T20:03:56.200Z,99578.41
2023-02-24T20:06:31.588Z,99669.59
2023-02-24T20:09:00.945Z,99631.28
2023-02-24T20:11:30.052Z,99673.53
2023-02-24T20:13:57.817Z,99679.78
2023-02-24T20:16:27.130Z,99601.31
2023-02-24T20:18:55.718Z,99617.31
2023-02-24T20:21:23.744Z,99677.44
2023-02-24T20:23:51.685Z,99658.03
2023-02-24T20:26:20.954Z,99621.75
2023-02-24T20:28:49.317Z,99588.06
2023-02-24T20:31:21.805Z,99663.81
2023-02-24T20:33:50.505Z,99644.56
2023-02-24T20:36:24.874Z,99673.56
2023-02-24T20:38:53.525Z,99675.34
2023-02-24T20:41:22.395Z,99671.25
2023-02-24T20:43:50.566Z,99670.00
2023-02-24T20:46:25.587Z,99655.53
2023-02-24T20:49:00.399Z,99589.69
2023-02-24T20:51:29.551Z,99667.09
2023-02-24T20:53:58.745Z,99672.84
2023-02-24T20:56:29.310Z,99676.69
2023-02-24T20:59:01.417Z,99599.63
2023-02-24T21:01:30.871Z,99663.50
2023-02-24T21:03:59.765Z,99623.06
2023-02-24T21:06:28.628Z,99652.81
2023-02-24T21:08:57.934Z,99626.34
2023-02-24T21:11:26.538Z,99651.31
2023-02-24T21:13:54.281Z,99549.19
2023-02-24T21:16:22.781Z,99628.47
2023-02-24T21:18:53.273Z,99645.97
2023-02-24T21:21:21.589Z,99553.63
2023-02-24T21:23:50.471Z,99590.47
2023-02-24T21:26:19.413Z,99620.16
2023-02-24T21:28:47.239Z,99635.41
2023-02-24T21:31:17.803Z,99641.78
2023-02-24T21:33:50.628Z,99604.84
2023-02-24T21:36:21.715Z,99634.34
2023-02-24T21:38:50.012Z,99619.53
2023-02-24T21:41:21.048Z,99573.13
2023-02-24T21:43:52.668Z,99593.50
2023-02-24T21:46:21.026Z,99627.09
2023-02-24T21:48:53.964Z,99568.69
2023-02-24T21:51:24.910Z,99564.56
2023-02-24T21:53:55.282Z,99479.69
2023-02-24T21:56:26.372Z,99626.06
2023-02-24T21:59:04.278Z,99624.16
2023-02-24T22:01:35.133Z,99604.53
2023-02-24T22:04:08.105Z,99616.59
2023-02-24T22:06:39.607Z,99622.66
2023-02-24T22:09:10.137Z,99521.56
2023-02-24T22:11:41.874Z,99530.41
2023-02-24T22:14:12.810Z,99589.97
2023-02-24T22:16:42.260Z,99618.44
2023-02-24T22:19:11.085Z,99616.81
2023-02-24T22:21:42.537Z,99605.25
2023-02-24T22:24:15.969Z,99528.47
2023-02-24T22:26:45.122Z,99620.25
2023-02-24T22:29:13.631Z,99499.03
2023-02-24T22:31:44.248Z,99622.66
2023-02-24T22:34:16.095Z,99625.06
2023-02-24T22:36:43.824Z,99621.25
2023-02-24T22:39:16.834Z,99602.44
2023-02-24T22:41:46.956Z,99612.09
2023-02-24T22:44:18.593Z,99579.25
2023-02-24T22:46:46.821Z,99613.00
2023-02-24T22:49:14.950Z,99588.69
2023-02-24T22:51:43.791Z,99608.09
2023-02-24T22:54:12.172Z,99616.63
2023-02-24T22:56:40.667Z,99613.13
2023-02-24T22:59:08.502Z,99549.19
2023-02-24T23:01:37.565Z,99611.91
2023-02-24T23:04:08.703Z,99613.22
2023-02-24T23:06:37.199Z,99610.00
2023-02-24T23:09:07.039Z,99594.13
2023-02-24T23:11:39.051Z,99533.63
2023-02-24T23:14:10.602Z,99619.25
2023-02-24T23:16:39.001Z,99603.56
2023-02-24T23:19:10.879Z,99466.56
2023-02-24T23:21:43.270Z,99596.34
2023-02-24T23:24:13.545Z,99601.25
2023-02-24T23:26:44.885Z,99595.81
2023-02-24T23:29:15.431Z,99572.00
2023-02-24T23:31:49.824Z,99600.34
2023-02-24T23:34:22.180Z,99596.53
2023-02-24T23:36:50.077Z,99523.34
2023-02-24T23:39:23.213Z,99591.28
2023-02-24T23:41:56.923Z,99576.00
2023-02-24T23:44:25.328Z,99589.97
2023-02-24T23:46:53.413Z,99535.41
2023-02-24T23:49:21.133Z,99594.03
2023-02-24T23:51:49.262Z,99520.53
2023-02-24T23:54:18.544Z,99587.47
2023-02-24T23:56:46.798Z,99596.72
2023-02-24T23:59:15.505Z,99558.03
